Time;durP1;ratioP1;P1;durP2;ratioP2;P2;SDS_P1;SDS_P2;PMS_P1;PMS_P2;Temp;Humidity;BMP_temperature;BMP_pressure;BME280_temperature;BME280_humidity;BME280_pressure;Samples;Min_cycle;Max_cycle;Signal;HPM_P1;HPM_P2
2023/03/26 00:01:35;;;;;;;4.68;1.08;;;8.20;99.90;;;;;;4986087;28;20049;-83
2023/03/26 00:04:04;;;;;;;3.13;0.85;;;8.10;99.90;;;;;;4978967;28;20052;-84
2023/03/26 00:06:36;;;;;;;4.40;0.73;;;8.20;99.90;;;;;;4978521;28;20046;-83
2023/03/26 00:09:05;;;;;;;4.20;0.70;;;8.20;99.90;;;;;;4998043;28;20128;-83
2023/03/26 00:11:33;;;;;;;2.50;0.47;;;8.30;99.90;;;;;;4999004;28;20054;-83
2023/03/26 00:14:04;;;;;;;2.75;0.60;;;8.30;99.90;;;;;;4982806;28;20108;-83
2023/03/26 00:16:34;;;;;;;7.20;0.77;;;8.40;99.90;;;;;;4982949;28;20050;-83
2023/03/26 00:19:02;;;;;;;4.47;0.70;;;8.40;99.90;;;;;;4982269;28;20105;-83
2023/03/26 00:21:30;;;;;;;6.32;0.80;;;8.40;99.90;;;;;;4991986;28;20046;-83
2023/03/26 00:24:06;;;;;;;4.20;0.80;;;8.40;99.90;;;;;;4982447;28;20099;-84
2023/03/26 00:26:37;;;;;;;4.40;0.90;;;8.50;99.90;;;;;;4998559;28;20052;-84
2023/03/26 00:29:05;;;;;;;4.25;0.80;;;8.50;99.90;;;;;;4976943;28;20042;-84
2023/03/26 00:31:33;;;;;;;4.38;0.77;;;8.50;99.90;;;;;;4986205;28;20046;-84
2023/03/26 00:34:04;;;;;;;5.80;0.82;;;8.50;99.90;;;;;;4982836;28;20149;-83
2023/03/26 00:36:34;;;;;;;9.20;1.13;;;8.50;99.90;;;;;;4982327;28;20045;-84
2023/03/26 00:39:04;;;;;;;5.95;1.27;;;8.60;99.90;;;;;;4985362;28;20563;-83
2023/03/26 00:41:35;;;;;;;4.13;0.60;;;8.50;99.90;;;;;;4986204;28;20046;-83
2023/03/26 00:44:03;;;;;;;5.18;1.02;;;8.60;99.90;;;;;;4953998;28;20137;-83
2023/03/26 00:46:31;;;;;;;4.45;1.08;;;8.60;99.90;;;;;;4998364;28;20141;-83
2023/03/26 00:48:59;;;;;;;5.50;0.73;;;8.60;99.90;;;;;;4983329;28;20066;-83
2023/03/26 00:51:30;;;;;;;5.53;1.13;;;8.60;99.90;;;;;;4997827;28;20137;-84
2023/03/26 00:54:00;;;;;;;7.63;1.00;;;8.60;99.90;;;;;;4950588;28;20160;-83
2023/03/26 00:56:29;;;;;;;4.97;1.15;;;8.50;99.90;;;;;;4982157;28;20501;-83
2023/03/26 00:58:58;;;;;;;8.13;1.70;;;8.50;99.90;;;;;;4981347;28;20046;-83
2023/03/26 01:01:27;;;;;;;5.78;1.35;;;8.50;99.90;;;;;;4966611;28;20061;-83
2023/03/26 01:03:58;;;;;;;7.28;1.17;;;8.50;99.90;;;;;;4981963;28;20124;-83
2023/03/26 01:06:36;;;;;;;6.38;0.68;;;8.50;99.90;;;;;;4997920;28;20101;-83
2023/03/26 01:09:18;;;;;;;4.75;0.63;;;8.50;99.90;;;;;;4981821;28;20506;-83
2023/03/26 01:11:47;;;;;;;7.05;0.93;;;8.50;99.90;;;;;;4981462;28;20053;-83
2023/03/26 01:14:18;;;;;;;10.75;1.45;;;8.50;99.90;;;;;;4996214;28;20033;-83
2023/03/26 01:16:51;;;;;;;5.63;0.95;;;8.50;99.90;;;;;;4997548;28;20050;-84
2023/03/26 01:19:43;;;;;;;10.65;1.95;;;8.50;99.90;;;;;;4981572;28;20050;-83
2023/03/26 01:22:19;;;;;;;;;;;8.50;99.90;;;;;;4995235;28;20046;-84
2023/03/26 01:24:51;;;;;;;9.45;1.80;;;8.50;99.90;;;;;;4997373;28;19932;-83
2023/03/26 01:27:24;;;;;;;6.70;1.45;;;8.50;99.90;;;;;;4993240;28;20100;-83
2023/03/26 01:30:15;;;;;;;7.28;1.05;;;8.60;99.90;;;;;;4997571;28;20453;-84
2023/03/26 01:33:12;;;;;;;4.30;1.10;;;8.60;99.90;;;;;;4980999;28;20049;-83
2023/03/26 01:35:47;;;;;;;10.57;1.48;;;8.70;99.90;;;;;;4977258;28;20558;-84
2023/03/26 01:38:22;;;;;;;8.68;1.30;;;8.60;99.90;;;;;;4999266;28;20046;-84
2023/03/26 01:40:58;;;;;;;6.80;1.73;;;8.70;99.90;;;;;;5003077;28;20038;-84
2023/03/26 01:43:44;;;;;;;6.75;1.20;;;8.70;99.90;;;;;;5036523;28;20089;-83
2023/03/26 01:46:13;;;;;;;7.40;1.58;;;8.70;99.90;;;;;;5015863;28;20041;-83
2023/03/26 01:48:45;;;;;;;6.22;1.35;;;8.70;99.90;;;;;;4998988;28;20487;-84
2023/03/26 01:51:24;;;;;;;6.88;1.10;;;8.80;99.90;;;;;;4998500;28;20054;-84
2023/03/26 01:53:52;;;;;;;5.55;1.08;;;8.70;99.90;;;;;;4990190;28;20108;-84
2023/03/26 01:56:46;;;;;;;4.85;1.00;;;8.70;99.90;;;;;;4975225;28;20053;-84
2023/03/26 01:59:50;;;;;;;4.45;0.73;;;8.80;99.90;;;;;;4997173;28;20046;-84
2023/03/26 02:02:26;;;;;;;3.70;0.60;;;8.80;99.90;;;;;;4997377;28;20053;-83
2023/03/26 02:05:32;;;;;;;5.05;1.00;;;8.80;99.90;;;;;;4978219;28;20434;-83
2023/03/26 02:08:36;;;;;;;7.50;0.85;;;8.80;99.90;;;;;;4960349;28;20067;-84
2023/03/26 02:11:11;;;;;;;7.72;1.15;;;8.80;99.90;;;;;;4985942;28;20050;-84
2023/03/26 02:13:42;;;;;;;7.05;1.38;;;8.80;99.90;;;;;;4997920;28;20037;-83
2023/03/26 02:16:15;;;;;;;7.10;1.08;;;8.80;99.90;;;;;;4995512;28;20443;-83
2023/03/26 02:18:46;;;;;;;4.95;1.27;;;8.80;99.90;;;;;;4996574;28;20095;-83
2023/03/26 02:21:20;;;;;;;5.53;0.95;;;8.80;99.90;;;;;;4964876;28;20042;-83
2023/03/26 02:23:56;;;;;;;3.05;0.80;;;8.80;99.90;;;;;;4979913;28;20122;-83
2023/03/26 02:26:26;;;;;;;6.53;0.95;;;8.80;99.90;;;;;;4996997;28;20050;-84
2023/03/26 02:29:18;;;;;;;6.60;1.20;;;8.80;99.90;;;;;;4979680;28;20506;-84
2023/03/26 02:31:47;;;;;;;4.30;0.82;;;8.80;99.90;;;;;;5009658;28;20073;-84
2023/03/26 02:34:15;;;;;;;6.95;1.50;;;8.80;99.90;;;;;;4996210;28;20053;-84
2023/03/26 02:36:49;;;;;;;3.22;0.77;;;8.80;99.90;;;;;;4980859;28;20517;-84
2023/03/26 02:39:17;;;;;;;4.10;0.82;;;8.80;99.90;;;;;;4980127;28;20076;-84
2023/03/26 02:41:53;;;;;;;5.10;0.77;;;8.80;99.90;;;;;;4981380;28;20088;-84
2023/03/26 02:44:20;;;;;;;6.22;1.48;;;8.80;99.90;;;;;;4963756;28;20080;-84
2023/03/26 02:47:07;;;;;;;6.45;1.50;;;8.80;99.90;;;;;;4950396;28;20492;-84
2023/03/26 02:49:53;;;;;;;3.13;0.80;;;8.80;99.90;;;;;;4999454;28;20196;-84
2023/03/26 02:52:32;;;;;;;6.95;1.20;;;8.80;99.90;;;;;;4957412;28;20041;-84
2023/03/26 02:55:02;;;;;;;5.47;1.15;;;8.80;99.90;;;;;;4961977;28;20053;-83
2023/03/26 02:57:33;;;;;;;5.68;0.93;;;8.80;99.90;;;;;;4980262;28;20042;-84
2023/03/26 03:00:21;;;;;;;6.75;1.00;;;8.80;99.90;;;;;;4968800;28;20041;-83
2023/03/26 03:02:49;;;;;;;4.90;0.70;;;8.80;99.90;;;;;;4996099;28;20046;-84
2023/03/26 03:05:37;;;;;;;7.60;1.73;;;8.90;99.90;;;;;;4968772;28;20038;-84
2023/03/26 03:08:19;;;;;;;5.65;1.58;;;8.80;99.90;;;;;;4976271;28;20072;-84
2023/03/26 03:11:11;;;;;;;4.63;0.90;;;8.80;99.90;;;;;;4997929;28;20410;-84
2023/03/26 03:13:48;;;;;;;7.43;1.30;;;8.80;99.90;;;;;;4985680;28;20107;-83
2023/03/26 03:16:19;;;;;;;4.70;0.90;;;8.90;99.90;;;;;;4976658;28;20042;-84
2023/03/26 03:18:53;;;;;;;5.28;0.95;;;8.90;99.90;;;;;;4995481;28;20041;-84
2023/03/26 03:21:27;;;;;;;4.72;0.93;;;8.90;99.90;;;;;;4995574;28;20057;-84
2023/03/26 03:23:55;;;;;;;8.95;2.10;;;8.90;99.90;;;;;;4995160;28;20406;-84
2023/03/26 03:26:29;;;;;;;9.23;1.70;;;8.80;99.90;;;;;;4980748;28;20100;-83
2023/03/26 03:29:02;;;;;;;9.27;1.80;;;8.80;99.90;;;;;;4980301;28;20510;-84
2023/03/26 03:31:30;;;;;;;9.35;1.92;;;8.80;99.90;;;;;;4947646;28;20049;-83
2023/03/26 03:34:02;;;;;;;10.65;2.80;;;8.80;99.90;;;;;;4995936;28;20145;-84
2023/03/26 03:36:37;;;;;;;10.75;2.75;;;8.80;99.90;;;;;;4973898;28;20048;-84
2023/03/26 03:39:12;;;;;;;6.55;2.42;;;8.80;99.90;;;;;;4981011;28;20046;-83
2023/03/26 03:41:40;;;;;;;6.80;1.80;;;8.90;99.90;;;;;;4995271;28;20057;-84
2023/03/26 03:44:12;;;;;;;6.40;1.60;;;8.80;99.90;;;;;;5007642;28;20041;-83
2023/03/26 03:46:39;;;;;;;7.80;2.78;;;8.80;99.90;;;;;;4983839;28;20141;-84
2023/03/26 03:49:06;;;;;;;6.95;1.85;;;8.80;99.90;;;;;;4972277;28;20576;-84
2023/03/26 03:51:36;;;;;;;9.18;2.28;;;8.90;99.90;;;;;;4999724;28;20078;-84
2023/03/26 03:54:12;;;;;;;9.40;3.33;;;8.90;99.90;;;;;;4993783;28;20402;-84
2023/03/26 03:57:02;;;;;;;6.70;2.10;;;8.90;99.90;;;;;;4978540;28;20433;-83
2023/03/26 03:59:38;;;;;;;8.48;1.73;;;8.80;99.90;;;;;;4969656;28;20073;-84
2023/03/26 04:02:33;;;;;;;7.13;1.85;;;8.80;99.90;;;;;;4987435;28;20054;-84
2023/03/26 04:05:04;;;;;;;5.75;1.40;;;8.80;99.90;;;;;;4983692;28;20038;-84
2023/03/26 04:07:33;;;;;;;6.57;1.17;;;8.90;99.90;;;;;;4998895;28;20553;-84
2023/03/26 04:10:07;;;;;;;4.50;2.22;;;8.80;99.90;;;;;;4991170;28;20048;-84
2023/03/26 04:13:00;;;;;;;5.93;0.93;;;8.80;99.90;;;;;;4990924;28;20495;-84
2023/03/26 04:15:50;;;;;;;5.03;1.00;;;8.80;99.90;;;;;;4982207;28;20054;-84
2023/03/26 04:18:19;;;;;;;5.70;1.00;;;8.90;99.90;;;;;;4998849;28;20092;-84
2023/03/26 04:20:46;;;;;;;5.15;1.30;;;8.90;99.90;;;;;;4967098;28;20494;-84
2023/03/26 04:23:21;;;;;;;3.25;0.70;;;8.80;99.90;;;;;;4978022;28;20038;-84
2023/03/26 04:25:56;;;;;;;3.83;0.75;;;8.80;99.90;;;;;;4990631;28;20429;-84
2023/03/26 04:28:47;;;;;;;4.50;0.93;;;8.90;99.90;;;;;;4985116;28;20053;-84
2023/03/26 04:31:27;;;;;;;4.20;0.85;;;8.90;99.90;;;;;;5001723;28;20060;-84
2023/03/26 04:34:04;;;;;;;7.63;1.63;;;8.90;99.90;;;;;;4998487;28;20046;-84
2023/03/26 04:36:36;;;;;;;2.72;0.85;;;8.90;99.90;;;;;;4998502;28;20054;-84
2023/03/26 04:39:04;;;;;;;3.40;0.70;;;8.90;99.90;;;;;;5009065;28;20038;-84
2023/03/26 04:42:00;;;;;;;3.10;0.80;;;8.90;99.90;;;;;;4981240;28;20073;-84
2023/03/26 04:44:37;;;;;;;5.15;0.70;;;8.90;99.90;;;;;;4987413;28;20049;-84
2023/03/26 04:47:08;;;;;;;5.82;1.27;;;8.90;99.90;;;;;;4982769;28;20045;-84
2023/03/26 04:49:45;;;;;;;3.47;0.43;;;8.90;99.90;;;;;;4983134;28;20100;-84
2023/03/26 04:52:14;;;;;;;2.63;0.70;;;8.90;99.90;;;;;;5008660;28;20046;-84
2023/03/26 04:54:47;;;;;;;2.60;0.40;;;8.90;99.90;;;;;;5007774;28;20497;-84
2023/03/26 04:57:42;;;;;;;3.63;0.68;;;8.90;99.90;;;;;;4979178;28;20054;-84
2023/03/26 05:00:19;;;;;;;3.88;0.43;;;8.90;99.90;;;;;;4992488;28;20073;-84
2023/03/26 05:02:56;;;;;;;1.75;0.50;;;8.80;99.90;;;;;;4953009;28;20506;-83
2023/03/26 05:05:24;;;;;;;1.10;0.52;;;8.90;99.90;;;;;;4965184;28;20042;-84
2023/03/26 05:07:52;;;;;;;1.75;0.25;;;8.80;99.90;;;;;;4979681;28;20034;-84
2023/03/26 05:10:23;;;;;;;4.47;0.60;;;8.80;99.90;;;;;;4981882;28;20566;-84
2023/03/26 05:12:55;;;;;;;4.57;0.63;;;8.90;99.90;;;;;;4974560;28;20042;-84
2023/03/26 05:15:32;;;;;;;2.53;0.43;;;8.80;99.90;;;;;;4993761;28;20155;-84
2023/03/26 05:18:14;;;;;;;2.47;0.43;;;8.80;99.90;;;;;;4997688;28;20048;-84
2023/03/26 05:20:48;;;;;;;1.88;0.40;;;8.80;99.90;;;;;;4967828;28;20049;-84
2023/03/26 05:23:16;;;;;;;2.40;0.30;;;8.80;99.90;;;;;;4981696;28;20046;-84
2023/03/26 05:25:52;;;;;;;2.53;0.22;;;8.80;99.90;;;;;;4994706;28;20095;-84
2023/03/26 05:28:24;;;;;;;3.63;0.40;;;8.80;99.90;;;;;;4995069;28;20045;-84
2023/03/26 05:31:10;;;;;;;1.67;0.50;;;8.80;99.90;;;;;;4982769;28;20188;-84
2023/03/26 05:33:44;;;;;;;2.95;0.30;;;8.90;99.90;;;;;;4982000;28;20062;-84
2023/03/26 05:36:14;;;;;;;3.72;0.50;;;8.80;99.90;;;;;;4986337;28;20060;-84
2023/03/26 05:38:51;;;;;;;2.05;0.60;;;8.90;99.90;;;;;;5010575;28;20059;-84
2023/03/26 05:41:56;;;;;;;4.00;0.60;;;8.90;99.90;;;;;;4926902;29;20044;-84
2023/03/26 05:44:32;;;;;;;2.28;0.40;;;8.90;99.90;;;;;;4938452;29;20047;-84
2023/03/26 05:47:03;;;;;;;2.88;0.50;;;8.90;99.90;;;;;;4975878;28;20134;-83
2023/03/26 05:49:30;;;;;;;2.78;0.85;;;8.90;99.90;;;;;;4995592;28;20042;-83
2023/03/26 05:52:00;;;;;;;1.77;0.35;;;8.80;99.90;;;;;;4977207;28;20078;-84
2023/03/26 05:54:56;;;;;;;3.00;0.77;;;8.90;99.90;;;;;;4958831;28;20051;-84
2023/03/26 05:57:42;;;;;;;2.10;0.60;;;8.90;99.90;;;;;;4987311;28;20053;-84
2023/03/26 06:00:29;;;;;;;3.22;0.80;;;8.90;99.90;;;;;;4959981;28;20085;-84
2023/03/26 06:03:00;;;;;;;2.88;0.50;;;8.90;99.90;;;;;;4994058;28;20069;-84
2023/03/26 06:05:50;;;;;;;;;;;8.90;99.90;;;;;;4987130;28;20471;-84
2023/03/26 06:08:27;;;;;;;2.00;0.60;;;8.80;99.90;;;;;;4996802;28;19968;-84
2023/03/26 06:11:01;;;;;;;1.25;0.30;;;8.90;99.90;;;;;;4997018;28;20465;-84
2023/03/26 06:13:34;;;;;;;2.50;0.70;;;8.90;99.90;;;;;;4991053;28;20467;-84
2023/03/26 06:16:02;;;;;;;2.75;0.40;;;8.90;99.90;;;;;;5005261;28;20034;-84
2023/03/26 06:18:32;;;;;;;3.75;0.40;;;8.90;99.90;;;;;;4964586;28;20042;-84
2023/03/26 06:21:19;;;;;;;2.90;0.40;;;8.90;99.90;;;;;;4986066;28;20133;-85
2023/03/26 06:23:57;;;;;;;3.58;0.57;;;8.90;99.90;;;;;;5012817;28;20136;-84
2023/03/26 06:26:43;;;;;;;6.22;0.77;;;8.90;99.90;;;;;;4983178;28;20061;-84
2023/03/26 06:29:34;;;;;;;5.00;0.60;;;8.80;99.90;;;;;;4971026;28;20054;-84
2023/03/26 06:32:24;;;;;;;2.63;0.80;;;8.90;99.90;;;;;;4996610;28;20139;-84
2023/03/26 06:34:55;;;;;;;4.60;1.00;;;8.80;99.90;;;;;;4964819;28;20053;-84
2023/03/26 06:37:23;;;;;;;3.30;0.50;;;8.90;99.90;;;;;;4994201;28;20449;-84
2023/03/26 06:39:56;;;;;;;7.47;1.02;;;8.90;99.90;;;;;;4995980;28;20066;-84
2023/03/26 06:42:43;;;;;;;6.97;2.13;;;8.90;99.90;;;;;;4999207;28;20068;-84
2023/03/26 06:45:52;;;;;;;3.38;0.82;;;8.90;99.90;;;;;;4991049;28;20159;-84
2023/03/26 06:48:38;;;;;;;4.68;0.90;;;8.90;99.90;;;;;;5012496;28;20439;-84
2023/03/26 06:51:25;;;;;;;1.65;0.50;;;8.90;99.90;;;;;;4965754;28;20053;-84
2023/03/26 06:54:31;;;;;;;4.07;0.40;;;8.90;99.90;;;;;;4933500;29;20052;-84
2023/03/26 06:57:09;;;;;;;3.53;0.70;;;8.90;99.90;;;;;;4889924;29;20171;-84
2023/03/26 06:59:42;;;;;;;2.80;0.60;;;8.90;99.90;;;;;;4964820;28;20081;-84
2023/03/26 07:02:32;;;;;;;4.88;0.68;;;8.90;99.90;;;;;;4993923;28;20049;-84
2023/03/26 07:05:34;;;;;;;2.38;0.60;;;8.90;99.90;;;;;;4972887;28;20053;-84
2023/03/26 07:08:24;;;;;;;2.13;0.57;;;9.00;99.90;;;;;;4979492;28;20080;-84
2023/03/26 07:11:10;;;;;;;1.75;0.50;;;9.00;99.90;;;;;;4960088;28;20053;-84
2023/03/26 07:13:59;;;;;;;4.43;1.05;;;9.00;99.90;;;;;;4976409;28;20058;-84
2023/03/26 07:16:43;;;;;;;2.35;0.50;;;9.00;99.90;;;;;;4953210;28;20056;-84
2023/03/26 07:19:19;;;;;;;3.83;0.60;;;9.10;99.90;;;;;;5016232;28;20405;-84
2023/03/26 07:21:47;;;;;;;3.88;0.63;;;9.10;99.90;;;;;;4983332;28;20133;-84
2023/03/26 07:24:33;;;;;;;3.50;0.88;;;9.10;99.90;;;;;;4987325;28;20561;-84
2023/03/26 07:27:44;;;;;;;3.47;0.52;;;9.10;99.90;;;;;;4991140;28;20470;-84
2023/03/26 07:30:19;;;;;;;5.93;0.70;;;9.20;99.90;;;;;;4979335;28;20087;-84
2023/03/26 07:33:49;;;;;;;2.75;0.65;;;9.20;99.90;;;;;;4995218;28;20048;-84
2023/03/26 07:36:38;;;;;;;2.60;0.70;;;9.20;99.90;;;;;;4929959;29;20137;-83
2023/03/26 07:39:50;;;;;;;3.63;0.60;;;9.20;99.90;;;;;;5000035;28;20129;-84
2023/03/26 07:42:55;;;;;;;2.70;0.63;;;9.20;99.90;;;;;;4988024;28;20046;-83
2023/03/26 07:45:48;;;;;;;2.72;0.82;;;9.20;99.90;;;;;;4985920;28;20049;-84
2023/03/26 07:48:43;;;;;;;3.70;0.63;;;9.10;99.90;;;;;;5008063;28;20049;-84
2023/03/26 07:51:17;;;;;;;4.15;0.80;;;9.20;99.90;;;;;;5007087;28;20129;-84
2023/03/26 07:53:47;;;;;;;;;;;9.20;99.90;;;;;;4982648;28;20498;-84
2023/03/26 07:56:44;;;;;;;2.40;0.63;;;9.10;99.90;;;;;;5004175;28;19921;-84
2023/03/26 08:00:08;;;;;;;3.13;0.93;;;9.10;99.90;;;;;;4983888;28;20046;-84
2023/03/26 08:03:21;;;;;;;3.22;0.65;;;9.20;99.90;;;;;;4989612;28;20111;-84
2023/03/26 08:06:36;;;;;;;3.25;1.05;;;9.20;99.90;;;;;;4983748;28;20060;-84
2023/03/26 08:09:41;;;;;;;2.17;0.40;;;9.30;99.80;;;;;;5006871;28;20046;-84
2023/03/26 08:12:52;;;;;;;3.63;0.60;;;9.30;99.80;;;;;;5008056;28;20453;-84
2023/03/26 08:15:38;;;;;;;7.00;0.80;;;9.30;99.80;;;;;;4995345;28;20046;-84
2023/03/26 08:18:17;;;;;;;6.15;1.55;;;9.30;99.80;;;;;;4980773;28;20105;-84
2023/03/26 08:20:57;;;;;;;1.92;0.60;;;9.30;99.70;;;;;;4980935;28;20587;-84
2023/03/26 08:23:39;;;;;;;3.20;0.60;;;9.40;99.80;;;;;;4994083;28;20050;-85
2023/03/26 08:26:34;;;;;;;3.33;0.95;;;9.40;99.70;;;;;;4995266;28;20052;-85
2023/03/26 08:29:14;;;;;;;3.55;0.90;;;9.40;99.70;;;;;;5012708;28;20034;-84
2023/03/26 08:31:45;;;;;;;3.13;0.80;;;9.40;99.70;;;;;;4990554;28;20050;-83
2023/03/26 08:34:13;;;;;;;4.28;0.60;;;9.40;99.70;;;;;;5004104;28;20069;-89
2023/03/26 08:36:40;;;;;;;4.53;0.70;;;9.40;99.70;;;;;;4967398;28;20149;-88
2023/03/26 08:39:07;;;;;;;2.78;0.88;;;9.40;99.70;;;;;;4986826;28;20527;-88
2023/03/26 08:41:50;;;;;;;7.90;0.98;;;9.40;99.70;;;;;;4986702;28;20077;-88
2023/03/26 08:44:40;;;;;;;8.82;1.27;;;9.40;99.70;;;;;;4981473;28;20495;-87
2023/03/26 08:47:19;;;;;;;6.70;1.10;;;9.50;99.60;;;;;;4993301;28;20046;-88
2023/03/26 08:50:05;;;;;;;4.13;0.70;;;9.50;99.70;;;;;;4985571;28;20153;-88
2023/03/26 08:52:47;;;;;;;6.22;1.00;;;9.40;99.70;;;;;;4985372;28;20140;-88
2023/03/26 08:55:21;;;;;;;3.05;0.70;;;9.50;99.70;;;;;;4970158;28;20056;-86
2023/03/26 08:58:16;;;;;;;3.97;1.33;;;9.40;99.70;;;;;;4999711;28;20056;-88
2023/03/26 09:01:06;;;;;;;4.13;0.80;;;9.50;99.90;;;;;;4980067;28;20380;-87
2023/03/26 09:04:12;;;;;;;7.15;0.95;;;9.40;99.60;;;;;;4996909;28;20061;-87
2023/03/26 09:06:42;;;;;;;2.22;0.60;;;9.40;99.60;;;;;;4996527;28;20563;-87
2023/03/26 09:09:09;;;;;;;7.80;1.90;;;9.30;99.70;;;;;;5004558;28;20058;-87
2023/03/26 09:12:04;;;;;;;3.95;0.75;;;9.30;99.70;;;;;;4980540;28;20491;-85
2023/03/26 09:14:49;;;;;;;2.38;0.70;;;9.30;99.70;;;;;;4987860;28;20049;-88
2023/03/26 09:17:50;;;;;;;4.05;0.90;;;9.20;99.80;;;;;;5002323;28;20046;-87
2023/03/26 09:20:53;;;;;;;2.85;0.65;;;9.30;99.80;;;;;;4990528;28;20058;-86
2023/03/26 09:23:27;;;;;;;3.45;1.00;;;9.20;99.80;;;;;;4995573;28;20133;-87
2023/03/26 09:26:24;;;;;;;3.67;0.65;;;9.20;99.80;;;;;;5002199;28;20045;-88
2023/03/26 09:29:03;;;;;;;3.53;1.00;;;9.30;99.80;;;;;;4986475;28;20137;-87
2023/03/26 09:32:08;;;;;;;2.55;1.15;;;9.20;99.70;;;;;;4997347;28;20038;-88
2023/03/26 09:35:02;;;;;;;1.85;0.73;;;9.20;99.70;;;;;;4980680;28;20495;-87
2023/03/26 09:37:41;;;;;;;1.58;0.50;;;9.20;99.80;;;;;;4971636;28;20407;-87
2023/03/26 09:40:49;;;;;;;2.05;0.60;;;9.20;99.80;;;;;;4998232;28;20045;-87
2023/03/26 09:43:22;;;;;;;3.63;0.80;;;9.10;99.90;;;;;;4988923;28;20498;-87
2023/03/26 09:46:19;;;;;;;2.53;0.82;;;9.10;99.90;;;;;;4982182;28;20126;-87
2023/03/26 09:49:29;;;;;;;4.15;0.98;;;9.10;99.90;;;;;;4959551;28;20047;-87
2023/03/26 09:51:59;;;;;;;2.60;0.80;;;9.10;99.80;;;;;;4969002;28;20114;-87
2023/03/26 09:54:59;;;;;;;3.50;0.90;;;9.10;99.90;;;;;;5014265;28;20495;-87
2023/03/26 09:57:52;;;;;;;3.17;1.02;;;9.10;99.80;;;;;;4988682;28;20050;-87
2023/03/26 10:00:47;;;;;;;3.60;0.80;;;9.10;99.80;;;;;;4983503;28;20146;-87
2023/03/26 10:03:29;;;;;;;3.15;0.95;;;9.20;99.80;;;;;;4998269;28;20104;-88
2023/03/26 10:06:02;;;;;;;;;;;9.20;99.80;;;;;;4998116;28;20077;-87
2023/03/26 10:08:55;;;;;;;3.22;1.05;;;9.20;99.80;;;;;;5002319;28;19932;-87
2023/03/26 10:11:59;;;;;;;2.47;0.73;;;9.30;99.70;;;;;;4981854;28;20122;-87
2023/03/26 10:14:43;;;;;;;4.10;0.90;;;9.40;99.60;;;;;;4993234;28;20061;-87
2023/03/26 10:17:26;;;;;;;3.08;1.00;;;9.40;99.60;;;;;;4993251;28;20050;-87
2023/03/26 10:20:22;;;;;;;3.58;1.00;;;9.40;99.50;;;;;;4986644;28;20045;-87
2023/03/26 10:22:52;;;;;;;4.20;0.80;;;9.40;99.50;;;;;;5004318;28;20414;-88
2023/03/26 10:25:28;;;;;;;4.07;0.85;;;9.40;99.50;;;;;;5007682;28;20045;-88
2023/03/26 10:28:08;;;;;;;3.20;0.75;;;9.50;99.60;;;;;;5004687;28;20458;-88
2023/03/26 10:30:44;;;;;;;4.15;1.17;;;9.50;99.50;;;;;;4997240;28;20045;-88
2023/03/26 10:33:21;;;;;;;3.78;1.00;;;9.50;99.50;;;;;;4977168;28;20571;-88
2023/03/26 10:36:18;;;;;;;2.17;0.70;;;9.60;99.50;;;;;;4977781;28;20054;-88
2023/03/26 10:38:51;;;;;;;2.53;0.77;;;9.80;99.40;;;;;;4977550;28;20494;-87
2023/03/26 10:41:41;;;;;;;2.50;0.70;;;9.80;99.40;;;;;;4977578;28;20042;-88
2023/03/26 10:44:42;;;;;;;2.90;0.50;;;10.00;99.30;;;;;;4930204;28;20541;-84
2023/03/26 10:47:18;;;;;;;1.98;0.88;;;10.10;99.10;;;;;;4959476;28;20130;-88
2023/03/26 10:50:16;;;;;;;2.20;0.65;;;10.20;99.00;;;;;;4973138;28;20511;-88
2023/03/26 10:53:35;;;;;;;2.33;1.00;;;10.30;98.90;;;;;;4957125;28;20096;-87
2023/03/26 10:56:25;;;;;;;2.97;0.90;;;10.20;98.90;;;;;;4916519;28;20070;-87
2023/03/26 10:58:56;;;;;;;3.13;0.50;;;10.20;98.90;;;;;;4968580;28;20058;-87
2023/03/26 11:01:30;;;;;;;1.67;0.43;;;10.10;98.90;;;;;;4977107;28;20474;-87
2023/03/26 11:04:17;;;;;;;2.60;0.52;;;10.00;99.00;;;;;;4977220;28;20061;-88
2023/03/26 11:07:11;;;;;;;4.57;1.10;;;9.90;99.10;;;;;;4992891;28;20042;-87
2023/03/26 11:09:39;;;;;;;3.30;0.70;;;9.80;99.20;;;;;;4973626;28;20562;-87
2023/03/26 11:12:29;;;;;;;2.45;0.50;;;9.80;99.30;;;;;;4992763;28;20042;-84
2023/03/26 11:15:29;;;;;;;3.72;1.13;;;9.80;99.30;;;;;;4978459;28;20141;-85
2023/03/26 11:18:15;;;;;;;3.10;0.90;;;9.80;99.20;;;;;;4980919;28;20046;-85
2023/03/26 11:21:15;;;;;;;2.42;0.90;;;9.70;99.30;;;;;;4976243;28;20479;-86
2023/03/26 11:24:23;;;;;;;2.90;1.20;;;9.70;99.40;;;;;;4981353;28;20097;-86
2023/03/26 11:26:56;;;;;;;4.22;1.58;;;9.60;99.30;;;;;;4976061;28;20050;-86
2023/03/26 11:29:47;;;;;;;7.28;2.70;;;9.60;99.40;;;;;;4976374;28;20042;-87
2023/03/26 11:32:23;;;;;;;5.78;2.70;;;9.50;99.50;;;;;;4973281;28;20042;-86
2023/03/26 11:35:13;;;;;;;8.02;3.05;;;9.40;99.50;;;;;;4975725;28;20046;-84
2023/03/26 11:37:52;;;;;;;6.10;2.90;;;9.40;99.60;;;;;;4976085;28;20077;-80
2023/03/26 11:40:26;;;;;;;5.97;2.90;;;9.40;99.60;;;;;;4992527;28;20506;-80
2023/03/26 11:43:01;;;;;;;6.95;3.03;;;9.40;99.60;;;;;;4982682;28;20039;-79
2023/03/26 11:45:36;;;;;;;4.18;2.03;;;9.50;99.60;;;;;;4974082;28;20141;-79
2023/03/26 11:48:08;;;;;;;8.75;4.00;;;9.50;99.50;;;;;;4970459;28;20043;-79
2023/03/26 11:50:43;;;;;;;4.97;2.83;;;9.50;99.50;;;;;;4974594;28;20141;-79
2023/03/26 11:53:15;;;;;;;7.22;3.40;;;9.50;99.50;;;;;;4983912;28;20056;-79
2023/03/26 11:56:03;;;;;;;6.57;3.70;;;9.40;99.50;;;;;;4959549;28;20462;-80
2023/03/26 11:58:38;;;;;;;7.53;3.20;;;9.30;99.50;;;;;;4965528;28;20066;-80
2023/03/26 12:01:15;;;;;;;8.90;3.75;;;9.30;99.70;;;;;;4996503;28;20046;-84
2023/03/26 12:03:54;;;;;;;8.82;4.03;;;9.20;99.70;;;;;;4964291;28;20054;-83
2023/03/26 12:06:24;;;;;;;10.10;3.85;;;9.20;99.70;;;;;;4989674;28;20402;-82
2023/03/26 12:08:55;;;;;;;7.60;3.88;;;9.10;99.80;;;;;;4968052;28;20057;-82
2023/03/26 12:11:33;;;;;;;7.20;2.75;;;9.10;99.80;;;;;;4979209;28;20522;-83
2023/03/26 12:14:03;;;;;;;7.03;3.13;;;9.10;99.90;;;;;;4975389;28;20122;-83
2023/03/26 12:16:33;;;;;;;4.53;2.30;;;9.10;99.90;;;;;;4994036;28;20046;-83
2023/03/26 12:19:18;;;;;;;6.50;2.85;;;9.10;99.90;;;;;;4990636;28;20065;-84
2023/03/26 12:21:48;;;;;;;6.28;3.03;;;9.10;99.80;;;;;;4994360;28;20035;-83
2023/03/26 12:24:33;;;;;;;9.10;3.60;;;9.00;99.90;;;;;;4953483;28;20390;-83
2023/03/26 12:27:24;;;;;;;7.93;3.53;;;9.00;99.90;;;;;;4977396;28;20073;-83
2023/03/26 12:30:15;;;;;;;7.43;2.50;;;9.10;99.90;;;;;;4991710;28;20487;-81
2023/03/26 12:32:43;;;;;;;8.48;3.53;;;9.10;99.90;;;;;;4974497;28;20518;-81
2023/03/26 12:35:20;;;;;;;8.45;3.05;;;9.10;99.90;;;;;;4978976;28;20080;-82
2023/03/26 12:37:47;;;;;;;5.60;2.42;;;9.20;99.80;;;;;;5001399;28;20042;-88
2023/03/26 12:40:31;;;;;;;10.45;3.53;;;9.40;99.70;;;;;;4985287;28;20529;-84
2023/03/26 12:43:02;;;;;;;6.57;2.53;;;9.50;99.50;;;;;;4999106;28;20166;-86
2023/03/26 12:45:54;;;;;;;5.90;2.20;;;9.60;99.40;;;;;;4966468;28;20071;-88
2023/03/26 12:48:41;;;;;;;6.43;2.15;;;9.60;99.30;;;;;;4996027;28;20080;-87
2023/03/26 12:51:20;;;;;;;7.13;2.97;;;9.60;99.30;;;;;;4953577;28;20047;-86
2023/03/26 12:53:50;;;;;;;10.73;3.50;;;9.60;99.20;;;;;;4990761;28;20524;-87
2023/03/26 12:56:26;;;;;;;10.95;3.28;;;9.50;99.20;;;;;;4990776;28;20053;-85
2023/03/26 12:59:02;;;;;;;8.48;2.58;;;9.50;99.20;;;;;;4998090;28;20049;-86
2023/03/26 13:01:49;;;;;;;5.57;2.20;;;9.40;99.30;;;;;;4977886;28;20588;-85
2023/03/26 13:04:22;;;;;;;5.93;2.25;;;9.40;99.30;;;;;;4977565;28;20154;-89
2023/03/26 13:07:12;;;;;;;6.80;1.92;;;9.40;99.30;;;;;;4966745;28;20043;-86
2023/03/26 13:10:25;;;;;;;5.45;2.00;;;9.30;99.40;;;;;;4963740;28;20043;-88
2023/03/26 13:13:08;;;;;;;5.07;2.00;;;9.30;99.40;;;;;;4978530;28;20482;-88
2023/03/26 13:15:50;;;;;;;7.95;2.22;;;9.20;99.40;;;;;;4994383;28;20092;-87
2023/03/26 13:18:40;;;;;;;8.15;3.00;;;9.10;99.40;;;;;;4978497;28;20074;-88
2023/03/26 13:21:23;;;;;;;7.18;2.10;;;9.10;99.50;;;;;;4959196;28;20043;-87
2023/03/26 13:24:02;;;;;;;3.72;1.40;;;9.00;99.80;;;;;;4985462;28;20185;-86
2023/03/26 13:26:35;;;;;;;8.13;2.22;;;9.00;99.50;;;;;;4992656;28;20043;-87
2023/03/26 13:29:08;;;;;;;6.47;1.73;;;9.10;99.50;;;;;;4977652;28;20038;-85
2023/03/26 13:31:50;;;;;;;5.72;1.30;;;9.00;99.50;;;;;;4980181;28;20060;-86
2023/03/26 13:34:29;;;;;;;6.25;1.48;;;9.00;99.50;;;;;;4978461;28;20065;-85
2023/03/26 13:37:31;;;;;;;4.75;1.50;;;8.90;99.50;;;;;;4992966;28;20046;-87
2023/03/26 13:40:16;;;;;;;6.65;1.33;;;8.90;99.50;;;;;;4991500;28;20065;-83
2023/03/26 13:43:20;;;;;;;5.93;1.73;;;8.90;99.60;;;;;;5002975;28;20048;-82
2023/03/26 13:45:55;;;;;;;5.22;1.25;;;9.00;99.40;;;;;;4970887;28;20046;-81
2023/03/26 13:48:31;;;;;;;4.30;1.02;;;9.00;99.50;;;;;;4993719;28;20033;-82
2023/03/26 13:51:25;;;;;;;3.22;0.75;;;9.10;99.40;;;;;;4986919;28;20045;-79
2023/03/26 13:54:12;;;;;;;3.33;0.88;;;9.20;99.30;;;;;;4993197;28;20053;-81
2023/03/26 13:56:45;;;;;;;4.90;1.10;;;9.30;99.30;;;;;;4979297;28;20050;-81
2023/03/26 13:59:26;;;;;;;3.40;0.90;;;9.40;99.10;;;;;;5012049;28;20413;-80
2023/03/26 14:02:41;;;;;;;7.50;1.25;;;9.50;99.00;;;;;;5002355;28;20042;-84
2023/03/26 14:05:40;;;;;;;3.05;0.90;;;9.60;98.80;;;;;;4935430;29;20072;-84
2023/03/26 14:08:29;;;;;;;6.07;1.00;;;9.70;98.70;;;;;;4918459;29;20044;-82
2023/03/26 14:11:09;;;;;;;5.38;1.42;;;9.80;98.70;;;;;;4921246;29;20048;-81